createdAt,value
2023-01-30T00:01:21.480Z,100105.81
2023-01-30T00:03:48.921Z,100106.69
2023-01-30T00:06:16.138Z,100107.94
2023-01-30T00:08:43.406Z,100104.81
2023-01-30T00:11:12.150Z,100106.31
2023-01-30T00:13:39.751Z,100101.50
2023-01-30T00:16:07.264Z,100103.56
2023-01-30T00:18:34.717Z,100097.56
2023-01-30T00:21:02.982Z,100093.19
2023-01-30T00:23:30.690Z,100095.06
2023-01-30T00:25:58.418Z,100094.91
2023-01-30T00:28:25.614Z,100092.50
2023-01-30T00:30:53.610Z,100093.75
2023-01-30T00:33:24.659Z,100088.66
2023-01-30T00:35:52.980Z,100092.34
2023-01-30T00:38:20.555Z,100087.09
2023-01-30T00:40:48.233Z,100089.19
2023-01-30T00:43:35.147Z,100089.13
2023-01-30T00:46:22.039Z,100081.28
2023-01-30T00:48:49.245Z,100085.84
2023-01-30T00:51:16.669Z,100079.28
2023-01-30T00:53:43.855Z,100087.03
2023-01-30T00:56:11.024Z,100081.00
2023-01-30T00:58:38.441Z,100077.34
2023-01-30T01:01:05.618Z,100068.28
2023-01-30T01:03:32.858Z,100070.53
2023-01-30T01:06:00.864Z,100062.00
2023-01-30T01:08:28.090Z,100061.00
2023-01-30T01:10:56.197Z,100058.28
2023-01-30T01:13:23.658Z,100056.31
2023-01-30T01:15:50.885Z,100051.22
2023-01-30T01:18:18.032Z,100052.25
2023-01-30T01:20:46.371Z,100048.03
2023-01-30T01:23:13.568Z,100056.06
2023-01-30T01:25:41.636Z,100047.94
2023-01-30T01:28:09.138Z,100041.22
2023-01-30T01:30:37.589Z,100043.00
2023-01-30T01:33:04.766Z,100038.31
2023-01-30T01:35:32.338Z,100042.78
2023-01-30T01:37:59.678Z,100041.13
2023-01-30T01:40:46.001Z,100038.69
2023-01-30T01:43:16.740Z,100037.25
2023-01-30T01:45:45.755Z,100031.62
2023-01-30T01:48:14.726Z,100027.25
2023-01-30T01:50:42.150Z,100027.69
2023-01-30T01:53:09.764Z,100016.28
2023-01-30T01:55:36.905Z,100010.75
2023-01-30T01:58:08.778Z,100003.69
2023-01-30T02:00:35.961Z,100007.69
2023-01-30T02:03:05.373Z,100001.69
2023-01-30T02:05:33.209Z,99998.22
2023-01-30T02:08:04.867Z,99994.56
2023-01-30T02:10:39.605Z,99987.00
2023-01-30T02:13:06.754Z,99979.09
2023-01-30T02:15:34.240Z,99981.00
2023-01-30T02:18:01.423Z,99982.22
2023-01-30T02:20:32.036Z,99975.53
2023-01-30T02:23:05.037Z,99976.22
2023-01-30T02:26:04.724Z,99965.09
2023-01-30T02:28:46.786Z,99964.00
2023-01-30T02:31:14.820Z,99961.03
2023-01-30T02:33:42.256Z,99959.00
2023-01-30T02:36:30.188Z,99954.78
2023-01-30T02:38:57.652Z,99952.38
2023-01-30T02:41:24.775Z,99951.19
2023-01-30T02:43:56.978Z,99946.69
2023-01-30T02:46:26.135Z,99929.62
2023-01-30T02:48:55.092Z,99930.16
2023-01-30T02:51:29.561Z,99931.59
2023-01-30T02:53:57.179Z,99920.81
2023-01-30T02:56:24.335Z,99915.09
2023-01-30T02:59:09.476Z,99915.13
2023-01-30T03:01:50.371Z,99907.97
2023-01-30T03:04:31.968Z,99905.41
2023-01-30T03:07:05.013Z,99898.78
2023-01-30T03:09:35.364Z,99897.13
2023-01-30T03:12:03.306Z,99896.13
2023-01-30T03:15:01.041Z,99894.56
2023-01-30T03:17:29.216Z,99906.22
2023-01-30T03:19:56.770Z,99901.16
2023-01-30T03:22:23.918Z,99898.56
2023-01-30T03:24:51.796Z,99896.88
2023-01-30T03:27:19.450Z,99893.19
2023-01-30T03:29:47.316Z,99895.19
2023-01-30T03:32:15.551Z,99894.66
2023-01-30T03:34:43.092Z,99896.69
2023-01-30T03:37:10.610Z,99890.62
2023-01-30T03:39:38.131Z,99886.78
2023-01-30T03:42:05.763Z,99878.06
2023-01-30T03:44:33.041Z,99876.00
2023-01-30T03:47:00.510Z,99884.97
2023-01-30T03:49:28.580Z,99876.03
2023-01-30T03:51:57.095Z,99876.47
2023-01-30T03:54:24.585Z,99872.97
2023-01-30T03:56:51.773Z,99876.84
2023-01-30T03:59:18.968Z,99870.03
2023-01-30T04:01:48.292Z,99873.13
2023-01-30T04:04:15.886Z,99868.72
2023-01-30T04:06:43.135Z,99863.66
2023-01-30T04:09:10.647Z,99868.50
2023-01-30T04:11:38.305Z,99858.38
2023-01-30T04:14:05.578Z,99858.38
2023-01-30T04:16:34.269Z,99850.97
2023-01-30T04:19:04.534Z,99853.12
2023-01-30T04:21:32.260Z,99849.41
2023-01-30T04:23:59.503Z,99851.56
2023-01-30T04:26:27.878Z,99845.09
2023-01-30T04:28:55.191Z,99854.22
2023-01-30T04:31:22.954Z,99850.25
2023-01-30T04:33:50.763Z,99847.75
2023-01-30T04:36:17.888Z,99844.38
2023-01-30T04:38:45.469Z,99836.50
2023-01-30T04:41:13.053Z,99837.34
2023-01-30T04:43:40.398Z,99829.62
2023-01-30T04:46:08.995Z,99822.53
2023-01-30T04:48:36.733Z,99818.19
2023-01-30T04:51:03.974Z,99813.09
2023-01-30T04:53:31.183Z,99810.13
2023-01-30T04:55:58.897Z,99807.12
2023-01-30T04:58:26.596Z,99811.81
2023-01-30T05:00:54.427Z,99816.28
2023-01-30T05:03:22.065Z,99816.91
2023-01-30T05:05:49.259Z,99807.22
2023-01-30T05:08:16.488Z,99806.44
2023-01-30T05:10:43.957Z,99807.69
2023-01-30T05:13:11.171Z,99801.22
2023-01-30T05:15:38.912Z,99802.97
2023-01-30T05:18:06.358Z,99808.72
2023-01-30T05:20:33.712Z,99804.88
2023-01-30T05:23:00.920Z,99809.25
2023-01-30T05:25:28.386Z,99801.56
2023-01-30T05:27:57.137Z,99794.97
2023-01-30T05:30:24.401Z,99802.78
2023-01-30T05:32:51.864Z,99806.06
2023-01-30T05:35:19.305Z,99805.72
2023-01-30T05:37:50.020Z,99798.34
2023-01-30T05:40:17.627Z,99797.88
2023-01-30T05:42:44.826Z,99790.53
2023-01-30T05:45:11.998Z,99793.66
2023-01-30T05:47:39.500Z,99792.03
2023-01-30T05:50:06.725Z,99786.03
2023-01-30T05:52:34.083Z,99791.25
2023-01-30T05:55:01.586Z,99792.31
2023-01-30T05:57:28.826Z,99793.34
2023-01-30T05:59:56.027Z,99800.28
2023-01-30T06:02:23.478Z,99802.22
2023-01-30T06:04:50.929Z,99800.81
2023-01-30T06:07:18.066Z,99798.75
2023-01-30T06:09:45.261Z,99805.63
2023-01-30T06:12:12.727Z,99801.38
2023-01-30T06:14:40.001Z,99800.31
2023-01-30T06:17:07.369Z,99793.66
2023-01-30T06:19:34.878Z,99791.56
2023-01-30T06:22:03.148Z,99800.66
2023-01-30T06:24:30.325Z,99796.47
2023-01-30T06:26:58.780Z,99797.03
2023-01-30T06:29:25.944Z,99791.62
2023-01-30T06:31:53.143Z,99795.78
2023-01-30T06:34:20.588Z,99794.00
2023-01-30T06:36:47.764Z,99796.75
2023-01-30T06:39:14.949Z,99791.09
2023-01-30T06:41:42.447Z,99782.97
2023-01-30T06:44:09.840Z,99792.09
2023-01-30T06:46:37.066Z,99783.38
2023-01-30T06:49:04.531Z,99776.47
2023-01-30T06:51:32.527Z,99764.72
2023-01-30T06:53:59.702Z,99774.38
2023-01-30T06:56:27.139Z,99774.97
2023-01-30T06:58:54.807Z,99769.03
2023-01-30T07:01:22.045Z,99773.37
2023-01-30T07:03:49.770Z,99778.25
2023-01-30T07:06:16.978Z,99772.44
2023-01-30T07:08:44.548Z,99766.13
2023-01-30T07:11:12.064Z,99763.63
2023-01-30T07:13:39.260Z,99758.75
2023-01-30T07:16:06.677Z,99762.75
2023-01-30T07:18:34.199Z,99764.16
2023-01-30T07:21:01.388Z,99767.50
2023-01-30T07:23:28.561Z,99770.25
2023-01-30T07:25:56.096Z,99765.09
2023-01-30T07:28:23.416Z,99763.47
2023-01-30T07:30:52.879Z,99761.03
2023-01-30T07:33:20.923Z,99760.28
2023-01-30T07:35:48.164Z,99762.63
2023-01-30T07:38:15.456Z,99764.09
2023-01-30T07:40:42.926Z,99757.94
2023-01-30T07:43:10.819Z,99764.37
2023-01-30T07:45:40.228Z,99760.34
2023-01-30T07:48:08.225Z,99760.34
2023-01-30T07:50:35.644Z,99762.50
2023-01-30T07:53:03.828Z,99748.03
2023-01-30T07:55:31.419Z,99742.84
2023-01-30T07:57:58.619Z,99748.59
2023-01-30T08:00:25.957Z,99743.50
2023-01-30T08:02:53.662Z,99743.31
2023-01-30T08:05:20.884Z,99741.03
2023-01-30T08:07:48.089Z,99742.09
2023-01-30T08:10:15.936Z,99733.87
2023-01-30T08:12:43.388Z,99724.91
2023-01-30T08:15:10.882Z,99727.37
2023-01-30T08:17:38.451Z,99707.22
2023-01-30T08:20:05.893Z,99690.81
2023-01-30T08:22:33.100Z,99683.66
2023-01-30T08:25:01.136Z,99666.22
2023-01-30T08:27:28.305Z,99671.72
2023-01-30T08:29:55.773Z,99669.91
2023-01-30T08:32:23.234Z,99671.63
2023-01-30T08:34:50.477Z,99678.47
2023-01-30T08:37:17.772Z,99677.62
2023-01-30T08:39:45.258Z,99673.25
2023-01-30T08:42:12.480Z,99675.69
2023-01-30T08:44:39.749Z,99672.63
2023-01-30T08:47:07.183Z,99672.50
2023-01-30T08:49:34.379Z,99666.31
2023-01-30T08:52:01.801Z,99662.44
2023-01-30T08:54:29.270Z,99663.50
2023-01-30T08:56:56.474Z,99659.56
2023-01-30T08:59:23.720Z,99666.09
2023-01-30T09:01:51.170Z,99666.63
2023-01-30T09:04:18.403Z,99663.75
2023-01-30T09:06:45.603Z,99666.19
2023-01-30T09:09:13.019Z,99664.78
2023-01-30T09:11:40.199Z,99658.91
2023-01-30T09:14:07.378Z,99652.41
2023-01-30T09:16:34.810Z,99653.59
2023-01-30T09:19:01.999Z,99656.03
2023-01-30T09:21:29.185Z,99656.16
2023-01-30T09:23:57.055Z,99646.97
2023-01-30T09:26:24.262Z,99649.69
2023-01-30T09:28:51.499Z,99645.09
2023-01-30T09:31:19.035Z,99633.19
2023-01-30T09:33:46.308Z,99634.53
2023-01-30T09:36:13.563Z,99636.56
2023-01-30T09:38:40.995Z,99636.13
2023-01-30T09:41:13.246Z,99627.91
2023-01-30T09:43:40.716Z,99626.09
2023-01-30T09:46:17.141Z,99625.00
2023-01-30T09:49:05.803Z,99625.00
2023-01-30T09:51:39.855Z,99616.19
2023-01-30T09:54:12.426Z,99605.13
2023-01-30T09:56:39.593Z,99601.94
2023-01-30T09:59:06.998Z,99604.66
2023-01-30T10:01:37.236Z,99594.50
2023-01-30T10:04:23.572Z,99586.25
2023-01-30T10:07:11.748Z,99587.59
2023-01-30T10:09:39.120Z,99582.97
2023-01-30T10:12:19.792Z,99582.78
2023-01-30T10:15:02.691Z,99567.81
2023-01-30T10:17:37.119Z,99568.09
2023-01-30T10:20:23.639Z,99561.16
2023-01-30T10:23:09.924Z,99564.66
2023-01-30T10:25:37.292Z,99553.03
2023-01-30T10:28:22.973Z,99556.28
2023-01-30T10:30:51.459Z,99549.31
2023-01-30T10:33:20.557Z,99538.19
2023-01-30T10:35:48.800Z,99531.03
2023-01-30T10:38:26.450Z,99526.03
2023-01-30T10:40:56.545Z,99519.41
2023-01-30T10:43:27.773Z,99510.84
2023-01-30T10:46:07.478Z,99513.50
2023-01-30T10:48:53.608Z,99500.91
2023-01-30T10:51:44.205Z,99496.16
2023-01-30T10:54:34.129Z,99501.31
2023-01-30T10:57:04.228Z,99473.19
2023-01-30T10:59:31.638Z,99468.47
2023-01-30T11:01:58.966Z,99464.09
2023-01-30T11:04:31.221Z,99455.50
2023-01-30T11:06:59.418Z,99459.28
2023-01-30T11:09:39.636Z,99449.94
2023-01-30T11:12:07.171Z,99445.53
2023-01-30T11:14:53.473Z,99435.50
2023-01-30T11:17:21.882Z,99436.16
2023-01-30T11:19:56.637Z,99423.31
2023-01-30T11:22:25.904Z,99418.81
2023-01-30T11:25:00.485Z,99413.87
2023-01-30T11:27:29.813Z,99408.03
2023-01-30T11:30:09.989Z,99399.94
2023-01-30T11:32:37.468Z,99392.53
2023-01-30T11:35:24.963Z,99399.66
2023-01-30T11:37:53.463Z,99385.00
2023-01-30T11:40:28.005Z,99387.66
2023-01-30T11:42:59.770Z,99387.66
2023-01-30T11:45:30.096Z,99377.22
2023-01-30T11:48:02.164Z,99367.06
2023-01-30T11:50:39.533Z,99357.81
2023-01-30T11:53:36.024Z,99350.78
2023-01-30T11:56:10.116Z,99357.19
2023-01-30T11:58:39.003Z,99352.78
2023-01-30T12:01:07.521Z,99343.47
2023-01-30T12:03:45.316Z,99342.06
2023-01-30T12:06:12.536Z,99344.53
2023-01-30T12:08:42.554Z,99343.78
2023-01-30T12:11:24.437Z,99351.94
2023-01-30T12:13:52.053Z,99342.28
2023-01-30T12:16:32.438Z,99334.50
2023-01-30T12:19:07.672Z,99328.97
2023-01-30T12:21:37.022Z,99320.19
2023-01-30T12:24:26.115Z,99319.94
2023-01-30T12:27:04.782Z,99288.31
2023-01-30T12:29:32.172Z,99298.59
2023-01-30T12:32:05.556Z,99286.50
2023-01-30T12:34:32.971Z,99286.03
2023-01-30T12:37:03.275Z,99266.84
2023-01-30T12:39:39.801Z,99265.31
2023-01-30T12:42:07.604Z,99260.97
2023-01-30T12:44:53.557Z,99270.37
2023-01-30T12:47:23.831Z,99269.91
2023-01-30T12:50:09.825Z,99272.69
2023-01-30T12:52:56.348Z,99270.13
2023-01-30T12:55:26.834Z,99274.03
2023-01-30T12:58:14.825Z,99270.59
2023-01-30T13:00:45.254Z,99261.72
2023-01-30T13:03:21.965Z,99261.09
2023-01-30T13:06:09.091Z,99240.38
2023-01-30T13:08:36.482Z,99229.25
2023-01-30T13:11:22.360Z,99226.91
2023-01-30T13:14:11.011Z,99216.63
2023-01-30T13:16:41.137Z,99208.69
2023-01-30T13:19:13.793Z,99204.81
2023-01-30T13:21:45.171Z,99204.44
2023-01-30T13:24:21.478Z,99213.84
2023-01-30T13:26:48.783Z,99233.59
2023-01-30T13:29:39.649Z,99224.47
2023-01-30T13:32:11.607Z,99234.56
2023-01-30T13:34:40.234Z,99218.94
2023-01-30T13:37:08.972Z,99224.81
2023-01-30T13:40:05.541Z,99216.53
2023-01-30T13:42:35.811Z,99233.69
2023-01-30T13:45:05.294Z,99241.28
2023-01-30T13:47:39.733Z,99234.09
2023-01-30T13:50:20.054Z,99231.94
2023-01-30T13:52:56.107Z,99229.91
2023-01-30T13:55:26.112Z,99222.03
2023-01-30T13:58:03.001Z,99214.03
2023-01-30T14:00:31.232Z,99214.13
2023-01-30T14:03:07.647Z,99207.87
2023-01-30T14:05:53.670Z,99204.62
2023-01-30T14:08:22.593Z,99201.50
2023-01-30T14:10:49.756Z,99196.31
2023-01-30T14:13:17.682Z,99197.06
2023-01-30T14:15:55.671Z,99201.97
2023-01-30T14:18:23.997Z,99201.28
2023-01-30T14:20:51.855Z,99197.28
2023-01-30T14:23:22.525Z,99194.53
2023-01-30T14:25:50.601Z,99195.03
2023-01-30T14:28:18.093Z,99193.09
2023-01-30T14:30:45.239Z,99190.25
2023-01-30T14:33:21.318Z,99197.59
2023-01-30T14:36:00.760Z,99203.84
2023-01-30T14:38:31.646Z,99213.59
2023-01-30T14:40:59.092Z,99213.28
2023-01-30T14:43:36.750Z,99208.69
2023-01-30T14:46:07.485Z,99196.50
2023-01-30T14:48:41.860Z,99196.72
2023-01-30T14:51:12.198Z,99185.75
2023-01-30T14:53:53.226Z,99189.03
2023-01-30T14:56:30.097Z,99188.47
2023-01-30T14:58:59.853Z,99195.31
2023-01-30T15:01:27.406Z,99189.78
2023-01-30T15:03:54.587Z,99197.75
2023-01-30T15:06:21.774Z,99193.34
2023-01-30T15:08:49.220Z,99190.19
2023-01-30T15:11:25.790Z,99196.03
2023-01-30T15:14:25.882Z,99185.69
2023-01-30T15:17:08.203Z,99190.78
2023-01-30T15:19:35.898Z,99201.25
2023-01-30T15:22:03.092Z,99193.34
2023-01-30T15:24:39.204Z,99193.84
2023-01-30T15:27:07.001Z,99183.41
2023-01-30T15:29:53.094Z,99202.44
2023-01-30T15:32:20.522Z,99215.56
2023-01-30T15:34:52.184Z,99207.41
2023-01-30T15:37:32.953Z,99214.28
2023-01-30T15:40:10.672Z,99215.47
2023-01-30T15:42:37.924Z,99215.47
2023-01-30T15:45:19.431Z,99232.19
2023-01-30T15:47:52.865Z,99231.56
2023-01-30T15:50:20.722Z,99232.13
2023-01-30T15:52:49.449Z,99240.00
2023-01-30T15:55:25.872Z,99233.34
2023-01-30T15:57:57.148Z,99238.69
2023-01-30T16:00:28.730Z,99234.38
2023-01-30T16:02:56.354Z,99233.56
2023-01-30T16:05:26.520Z,99241.50
2023-01-30T16:07:54.686Z,99237.84
2023-01-30T16:10:23.524Z,99237.00
2023-01-30T16:12:52.833Z,99241.94
2023-01-30T16:15:24.109Z,99226.97
2023-01-30T16:17:59.689Z,99223.94
2023-01-30T16:20:27.222Z,99225.16
2023-01-30T16:22:54.768Z,99234.75
2023-01-30T16:25:23.228Z,99223.19
2023-01-30T16:27:51.672Z,99221.69
2023-01-30T16:30:20.663Z,99232.88
2023-01-30T16:32:48.049Z,99237.78
2023-01-30T16:35:17.195Z,99241.06
2023-01-30T16:37:45.021Z,99245.13
2023-01-30T16:40:13.965Z,99243.97
2023-01-30T16:42:41.290Z,99248.31
2023-01-30T16:45:19.492Z,99247.59
2023-01-30T16:47:47.073Z,99241.41
2023-01-30T16:50:18.381Z,99242.31
2023-01-30T16:52:46.734Z,99244.16
2023-01-30T16:55:21.198Z,99245.50
2023-01-30T16:57:52.518Z,99254.06
2023-01-30T17:00:26.443Z,99252.69
2023-01-30T17:02:54.974Z,99252.47
2023-01-30T17:05:25.302Z,99255.25
2023-01-30T17:07:52.814Z,99244.50
2023-01-30T17:10:29.690Z,99251.66
2023-01-30T17:12:56.984Z,99249.91
2023-01-30T17:15:28.443Z,99244.94
2023-01-30T17:17:55.643Z,99237.38
2023-01-30T17:20:23.085Z,99239.41
2023-01-30T17:22:52.492Z,99248.31
2023-01-30T17:25:38.272Z,99239.81
2023-01-30T17:28:06.795Z,99246.41
2023-01-30T17:30:34.167Z,99243.41
2023-01-30T17:33:01.386Z,99240.53
2023-01-30T17:35:28.904Z,99241.72
2023-01-30T17:38:04.771Z,99239.59
2023-01-30T17:40:34.244Z,99236.81
2023-01-30T17:43:01.394Z,99231.41
2023-01-30T17:45:28.651Z,99230.56
2023-01-30T17:47:56.298Z,99232.03
2023-01-30T17:50:23.483Z,99223.34
2023-01-30T17:52:50.735Z,99216.69
2023-01-30T17:55:18.794Z,99207.03
2023-01-30T17:57:47.105Z,99213.69
2023-01-30T18:00:15.399Z,99224.25
2023-01-30T18:02:42.940Z,99223.59
2023-01-30T18:05:10.268Z,99226.88
2023-01-30T18:07:38.314Z,99220.16
2023-01-30T18:10:06.146Z,99225.63
2023-01-30T18:12:33.450Z,99225.00
2023-01-30T18:15:00.773Z,99215.19
2023-01-30T18:17:28.547Z,99231.06
2023-01-30T18:19:56.062Z,99225.53
2023-01-30T18:22:23.985Z,99221.78
2023-01-30T18:24:51.525Z,99227.28
2023-01-30T18:27:18.881Z,99222.19
2023-01-30T18:29:46.308Z,99220.09
2023-01-30T18:32:15.337Z,99235.91
2023-01-30T18:34:43.114Z,99219.09
2023-01-30T18:37:10.412Z,99229.09
2023-01-30T18:39:38.460Z,99232.88
2023-01-30T18:42:06.564Z,99231.75
2023-01-30T18:44:34.091Z,99231.75
2023-01-30T18:47:01.791Z,99236.06
2023-01-30T18:49:30.167Z,99236.97
2023-01-30T18:51:57.831Z,99240.75
2023-01-30T18:54:25.753Z,99243.62
2023-01-30T18:56:53.119Z,99236.88
2023-01-30T18:59:20.463Z,99249.97
2023-01-30T19:01:49.650Z,99257.22
2023-01-30T19:04:17.010Z,99262.31
2023-01-30T19:06:44.316Z,99254.66
2023-01-30T19:09:12.655Z,99264.09
2023-01-30T19:11:58.593Z,99267.19
2023-01-30T19:14:26.304Z,99267.69
2023-01-30T19:16:54.574Z,99270.59
2023-01-30T19:19:22.126Z,99258.75
2023-01-30T19:21:52.168Z,99254.81
2023-01-30T19:24:21.181Z,99259.84
2023-01-30T19:26:48.844Z,99254.66
2023-01-30T19:29:17.162Z,99247.94
2023-01-30T19:31:47.191Z,99251.53
2023-01-30T19:34:14.873Z,99250.28
2023-01-30T19:36:42.574Z,99245.56
2023-01-30T19:39:09.783Z,99246.75
2023-01-30T19:41:39.679Z,99254.37
2023-01-30T19:44:08.029Z,99252.38
2023-01-30T19:46:35.784Z,99255.56
2023-01-30T19:49:03.601Z,99254.25
2023-01-30T19:51:32.443Z,99254.06
2023-01-30T19:54:01.489Z,99258.19
2023-01-30T19:56:29.080Z,99267.41
2023-01-30T19:58:57.364Z,99264.97
2023-01-30T20:01:27.503Z,99268.41
2023-01-30T20:03:55.418Z,99259.34
2023-01-30T20:06:24.083Z,99261.53
2023-01-30T20:08:58.244Z,99258.38
2023-01-30T20:11:25.989Z,99255.84
2023-01-30T20:13:53.502Z,99252.44
2023-01-30T20:16:22.251Z,99243.31
2023-01-30T20:18:53.972Z,99237.22
2023-01-30T20:21:21.547Z,99244.69
2023-01-30T20:23:49.305Z,99236.03
2023-01-30T20:26:17.875Z,99229.34
2023-01-30T20:28:45.311Z,99227.28
2023-01-30T20:31:12.786Z,99224.50
2023-01-30T20:33:40.786Z,99217.22
2023-01-30T20:36:09.990Z,99219.78
2023-01-30T20:38:38.528Z,99221.31
2023-01-30T20:41:06.197Z,99223.63
2023-01-30T20:43:34.299Z,99221.34
2023-01-30T20:46:02.428Z,99221.34
2023-01-30T20:48:31.101Z,99231.19
2023-01-30T20:51:02.082Z,99226.78
2023-01-30T20:53:29.835Z,99220.44
2023-01-30T20:55:58.513Z,99213.28
2023-01-30T20:58:26.319Z,99210.22
2023-01-30T21:00:54.008Z,99191.78
2023-01-30T21:03:25.440Z,99194.28
2023-01-30T21:05:57.099Z,99192.34
2023-01-30T21:08:24.725Z,99186.63
2023-01-30T21:10:55.486Z,99186.88
2023-01-30T21:13:24.538Z,99198.06
2023-01-30T21:15:59.586Z,99203.81
2023-01-30T21:18:28.739Z,99218.28
2023-01-30T21:20:56.361Z,99209.13
2023-01-30T21:23:23.539Z,99235.78
2023-01-30T21:25:50.840Z,99226.97
2023-01-30T21:28:18.552Z,99230.13
2023-01-30T21:30:47.074Z,99231.50
2023-01-30T21:33:14.367Z,99233.63
2023-01-30T21:35:42.092Z,99234.81
2023-01-30T21:38:28.494Z,99231.56
2023-01-30T21:41:14.749Z,99222.94
2023-01-30T21:43:41.939Z,99205.78
2023-01-30T21:46:09.498Z,99202.13
2023-01-30T21:48:36.791Z,99196.06
2023-01-30T21:51:10.908Z,99192.22
2023-01-30T21:53:38.871Z,99203.56
2023-01-30T21:56:06.441Z,99200.91
2023-01-30T21:58:34.311Z,99199.00
2023-01-30T22:01:05.744Z,99197.06
2023-01-30T22:03:33.912Z,99192.59
2023-01-30T22:06:01.315Z,99198.63
2023-01-30T22:08:28.466Z,99200.37
2023-01-30T22:11:06.029Z,99203.31
2023-01-30T22:13:34.051Z,99193.50
2023-01-30T22:16:03.180Z,99207.59
2023-01-30T22:18:30.818Z,99204.84
2023-01-30T22:21:01.798Z,99198.78
2023-01-30T22:23:36.310Z,99198.19
2023-01-30T22:26:03.621Z,99188.03
2023-01-30T22:28:31.263Z,99193.06
2023-01-30T22:31:05.530Z,99187.03
2023-01-30T22:33:33.389Z,99195.81
2023-01-30T22:36:00.967Z,99193.81
2023-01-30T22:38:28.195Z,99201.13
2023-01-30T22:41:01.008Z,99204.88
2023-01-30T22:43:28.699Z,99203.78
2023-01-30T22:46:00.719Z,99203.19
2023-01-30T22:48:28.659Z,99200.41
2023-01-30T22:51:02.313Z,99200.81
2023-01-30T22:53:40.561Z,99203.84
2023-01-30T22:56:08.933Z,99195.50
2023-01-30T22:58:36.995Z,99193.41
2023-01-30T23:01:04.240Z,99188.34
2023-01-30T23:03:31.679Z,99195.75
2023-01-30T23:05:59.547Z,99202.22
2023-01-30T23:08:28.724Z,99198.19
2023-01-30T23:10:56.130Z,99202.22
2023-01-30T23:13:23.351Z,99194.53
2023-01-30T23:15:50.503Z,99203.28
2023-01-30T23:18:36.776Z,99197.53
2023-01-30T23:21:04.013Z,99194.13
2023-01-30T23:23:31.501Z,99180.63
2023-01-30T23:26:01.136Z,99185.53
2023-01-30T23:28:28.345Z,99187.72
2023-01-30T23:30:55.801Z,99204.44
2023-01-30T23:33:22.993Z,99198.88
2023-01-30T23:35:50.264Z,99204.38
2023-01-30T23:38:21.873Z,99192.00
2023-01-30T23:40:49.141Z,99175.03
2023-01-30T23:43:16.491Z,99159.50
2023-01-30T23:45:43.963Z,99169.06
2023-01-30T23:48:11.196Z,99165.75
2023-01-30T23:50:38.800Z,99164.06
2023-01-30T23:53:06.752Z,99161.41
2023-01-30T23:55:33.929Z,99162.72
2023-01-30T23:58:01.059Z,99154.37
